sensor_id;sensor_type;location;lat;lon;timestamp;P1;durP1;ratioP1;P2;durP2;ratioP2
38208;SDS011;24016;52.102;11.584;2023-12-22T00:01:38;9.13;;;2.50;;
38208;SDS011;24016;52.102;11.584;2023-12-22T00:04:04;10.52;;;2.30;;
38208;SDS011;24016;52.102;11.584;2023-12-22T00:06:31;9.95;;;2.20;;
38208;SDS011;24016;52.102;11.584;2023-12-22T00:08:57;7.80;;;1.80;;
38208;SDS011;24016;52.102;11.584;2023-12-22T00:11:22;13.32;;;2.80;;
38208;SDS011;24016;52.102;11.584;2023-12-22T00:13:48;12.35;;;2.30;;
38208;SDS011;24016;52.102;11.584;2023-12-22T00:16:13;7.18;;;2.15;;
38208;SDS011;24016;52.102;11.584;2023-12-22T00:18:39;7.15;;;2.05;;
38208;SDS011;24016;52.102;11.584;2023-12-22T00:21:04;5.60;;;1.58;;
38208;SDS011;24016;52.102;11.584;2023-12-22T00:23:34;6.30;;;2.08;;
38208;SDS011;24016;52.102;11.584;2023-12-22T00:26:00;11.60;;;1.95;;
38208;SDS011;24016;52.102;11.584;2023-12-22T00:28:26;6.85;;;1.92;;
38208;SDS011;24016;52.102;11.584;2023-12-22T00:30:52;10.52;;;2.83;;
38208;SDS011;24016;52.102;11.584;2023-12-22T00:33:17;6.95;;;1.85;;
38208;SDS011;24016;52.102;11.584;2023-12-22T00:35:43;8.60;;;1.75;;
38208;SDS011;24016;52.102;11.584;2023-12-22T00:38:08;7.70;;;2.08;;
38208;SDS011;24016;52.102;11.584;2023-12-22T00:40:35;7.50;;;1.98;;
38208;SDS011;24016;52.102;11.584;2023-12-22T00:43:00;7.50;;;2.30;;
38208;SDS011;24016;52.102;11.584;2023-12-22T00:45:26;12.93;;;2.45;;
38208;SDS011;24016;52.102;11.584;2023-12-22T00:47:51;8.45;;;1.88;;
38208;SDS011;24016;52.102;11.584;2023-12-22T00:50:17;5.10;;;1.70;;
38208;SDS011;24016;52.102;11.584;2023-12-22T00:52:43;6.43;;;1.77;;
38208;SDS011;24016;52.102;11.584;2023-12-22T00:55:08;9.48;;;2.17;;
38208;SDS011;24016;52.102;11.584;2023-12-22T00:57:34;9.27;;;2.38;;
38208;SDS011;24016;52.102;11.584;2023-12-22T00:59:59;8.00;;;1.83;;
38208;SDS011;24016;52.102;11.584;2023-12-22T01:02:25;6.70;;;1.70;;
38208;SDS011;24016;52.102;11.584;2023-12-22T01:04:51;8.05;;;1.90;;
38208;SDS011;24016;52.102;11.584;2023-12-22T01:07:16;9.20;;;2.67;;
38208;SDS011;24016;52.102;11.584;2023-12-22T01:09:43;9.52;;;2.13;;
38208;SDS011;24016;52.102;11.584;2023-12-22T01:12:09;9.70;;;2.60;;
38208;SDS011;24016;52.102;11.584;2023-12-22T01:14:35;11.50;;;1.95;;
38208;SDS011;24016;52.102;11.584;2023-12-22T01:17:01;13.30;;;2.65;;
38208;SDS011;24016;52.102;11.584;2023-12-22T01:19:27;15.32;;;2.63;;
38208;SDS011;24016;52.102;11.584;2023-12-22T01:21:53;12.73;;;3.05;;
38208;SDS011;24016;52.102;11.584;2023-12-22T01:24:19;8.98;;;2.15;;
38208;SDS011;24016;52.102;11.584;2023-12-22T01:26:44;15.43;;;2.70;;
38208;SDS011;24016;52.102;11.584;2023-12-22T01:29:10;7.72;;;1.95;;
38208;SDS011;24016;52.102;11.584;2023-12-22T01:31:35;10.02;;;2.28;;
38208;SDS011;24016;52.102;11.584;2023-12-22T01:34:01;11.52;;;2.42;;
38208;SDS011;24016;52.102;11.584;2023-12-22T01:36:26;14.48;;;2.95;;
38208;SDS011;24016;52.102;11.584;2023-12-22T01:38:52;12.52;;;2.92;;
38208;SDS011;24016;52.102;11.584;2023-12-22T01:41:17;10.35;;;2.33;;
38208;SDS011;24016;52.102;11.584;2023-12-22T01:43:43;9.63;;;2.30;;
38208;SDS011;24016;52.102;11.584;2023-12-22T01:46:08;14.82;;;2.63;;
38208;SDS011;24016;52.102;11.584;2023-12-22T01:48:35;11.63;;;2.45;;
38208;SDS011;24016;52.102;11.584;2023-12-22T01:51:01;11.55;;;2.30;;
38208;SDS011;24016;52.102;11.584;2023-12-22T01:53:27;10.00;;;1.80;;
38208;SDS011;24016;52.102;11.584;2023-12-22T01:55:54;8.45;;;2.10;;
38208;SDS011;24016;52.102;11.584;2023-12-22T01:58:22;12.98;;;2.42;;
38208;SDS011;24016;52.102;11.584;2023-12-22T02:00:48;12.93;;;3.17;;
38208;SDS011;24016;52.102;11.584;2023-12-22T02:03:14;14.52;;;2.85;;
38208;SDS011;24016;52.102;11.584;2023-12-22T02:05:41;16.67;;;2.55;;
38208;SDS011;24016;52.102;11.584;2023-12-22T02:08:08;16.52;;;3.35;;
38208;SDS011;24016;52.102;11.584;2023-12-22T02:10:34;15.32;;;3.20;;
38208;SDS011;24016;52.102;11.584;2023-12-22T02:13:00;15.65;;;2.88;;
38208;SDS011;24016;52.102;11.584;2023-12-22T02:15:25;17.73;;;2.92;;
38208;SDS011;24016;52.102;11.584;2023-12-22T02:17:53;10.88;;;2.78;;
38208;SDS011;24016;52.102;11.584;2023-12-22T02:20:23;16.35;;;3.00;;
38208;SDS011;24016;52.102;11.584;2023-12-22T02:22:50;11.85;;;2.92;;
38208;SDS011;24016;52.102;11.584;2023-12-22T02:25:17;16.55;;;2.70;;
38208;SDS011;24016;52.102;11.584;2023-12-22T02:27:50;16.63;;;2.42;;
38208;SDS011;24016;52.102;11.584;2023-12-22T02:32:50;12.10;;;2.45;;
38208;SDS011;24016;52.102;11.584;2023-12-22T02:35:23;16.70;;;2.40;;
38208;SDS011;24016;52.102;11.584;2023-12-22T02:37:50;10.63;;;2.60;;
38208;SDS011;24016;52.102;11.584;2023-12-22T02:40:17;14.63;;;2.65;;
38208;SDS011;24016;52.102;11.584;2023-12-22T02:42:44;14.93;;;2.50;;
38208;SDS011;24016;52.102;11.584;2023-12-22T02:45:14;15.80;;;2.47;;
38208;SDS011;24016;52.102;11.584;2023-12-22T02:47:41;12.85;;;2.47;;
38208;SDS011;24016;52.102;11.584;2023-12-22T02:50:07;16.05;;;2.50;;
38208;SDS011;24016;52.102;11.584;2023-12-22T02:52:33;10.57;;;2.63;;
38208;SDS011;24016;52.102;11.584;2023-12-22T02:54:59;13.80;;;2.70;;
38208;SDS011;24016;52.102;11.584;2023-12-22T02:57:24;15.02;;;2.72;;
38208;SDS011;24016;52.102;11.584;2023-12-22T02:59:50;10.55;;;2.20;;
38208;SDS011;24016;52.102;11.584;2023-12-22T03:02:15;11.45;;;2.33;;
38208;SDS011;24016;52.102;11.584;2023-12-22T03:04:41;9.65;;;2.22;;
38208;SDS011;24016;52.102;11.584;2023-12-22T03:07:07;7.57;;;2.20;;
38208;SDS011;24016;52.102;11.584;2023-12-22T03:09:32;10.70;;;2.03;;
38208;SDS011;24016;52.102;11.584;2023-12-22T03:11:59;9.38;;;2.10;;
38208;SDS011;24016;52.102;11.584;2023-12-22T03:14:30;11.43;;;2.63;;
38208;SDS011;24016;52.102;11.584;2023-12-22T03:16:58;10.50;;;1.80;;
38208;SDS011;24016;52.102;11.584;2023-12-22T03:19:24;10.65;;;2.15;;
38208;SDS011;24016;52.102;11.584;2023-12-22T03:21:50;7.75;;;1.92;;
38208;SDS011;24016;52.102;11.584;2023-12-22T03:24:16;10.75;;;3.67;;
38208;SDS011;24016;52.102;11.584;2023-12-22T03:26:43;12.20;;;2.30;;
38208;SDS011;24016;52.102;11.584;2023-12-22T03:29:09;12.88;;;2.42;;
38208;SDS011;24016;52.102;11.584;2023-12-22T03:31:34;5.50;;;1.67;;
38208;SDS011;24016;52.102;11.584;2023-12-22T03:34:00;7.72;;;1.92;;
38208;SDS011;24016;52.102;11.584;2023-12-22T03:36:25;11.02;;;2.17;;
38208;SDS011;24016;52.102;11.584;2023-12-22T03:38:51;12.20;;;1.88;;
38208;SDS011;24016;52.102;11.584;2023-12-22T03:41:16;10.05;;;1.67;;
38208;SDS011;24016;52.102;11.584;2023-12-22T03:43:42;6.97;;;1.85;;
38208;SDS011;24016;52.102;11.584;2023-12-22T03:46:07;11.85;;;2.53;;
38208;SDS011;24016;52.102;11.584;2023-12-22T03:48:33;8.73;;;1.88;;
38208;SDS011;24016;52.102;11.584;2023-12-22T03:50:59;9.85;;;1.92;;
38208;SDS011;24016;52.102;11.584;2023-12-22T03:53:24;8.93;;;2.13;;
38208;SDS011;24016;52.102;11.584;2023-12-22T03:55:50;11.15;;;2.38;;
38208;SDS011;24016;52.102;11.584;2023-12-22T03:58:16;11.20;;;2.10;;
38208;SDS011;24016;52.102;11.584;2023-12-22T04:00:41;9.15;;;2.30;;
38208;SDS011;24016;52.102;11.584;2023-12-22T04:03:07;6.90;;;2.22;;
38208;SDS011;24016;52.102;11.584;2023-12-22T04:05:32;11.25;;;2.10;;
38208;SDS011;24016;52.102;11.584;2023-12-22T04:07:58;6.63;;;2.20;;
38208;SDS011;24016;52.102;11.584;2023-12-22T04:10:24;12.20;;;1.73;;
38208;SDS011;24016;52.102;11.584;2023-12-22T04:12:49;7.25;;;2.55;;
38208;SDS011;24016;52.102;11.584;2023-12-22T04:15:15;4.90;;;1.63;;
38208;SDS011;24016;52.102;11.584;2023-12-22T04:17:40;5.28;;;1.60;;
38208;SDS011;24016;52.102;11.584;2023-12-22T04:20:06;4.30;;;1.48;;
38208;SDS011;24016;52.102;11.584;2023-12-22T04:22:33;9.80;;;1.40;;
38208;SDS011;24016;52.102;11.584;2023-12-22T04:24:58;7.25;;;1.30;;
38208;SDS011;24016;52.102;11.584;2023-12-22T04:27:24;5.25;;;0.95;;
38208;SDS011;24016;52.102;11.584;2023-12-22T04:29:50;3.25;;;0.98;;
38208;SDS011;24016;52.102;11.584;2023-12-22T04:32:15;4.75;;;0.88;;
38208;SDS011;24016;52.102;11.584;2023-12-22T04:34:41;7.72;;;1.55;;
38208;SDS011;24016;52.102;11.584;2023-12-22T04:37:07;5.95;;;1.45;;
38208;SDS011;24016;52.102;11.584;2023-12-22T04:39:32;5.00;;;1.20;;
38208;SDS011;24016;52.102;11.584;2023-12-22T04:41:58;4.30;;;1.10;;
38208;SDS011;24016;52.102;11.584;2023-12-22T04:44:24;4.43;;;1.50;;
38208;SDS011;24016;52.102;11.584;2023-12-22T04:46:50;5.50;;;1.33;;
38208;SDS011;24016;52.102;11.584;2023-12-22T04:49:15;3.58;;;0.98;;
38208;SDS011;24016;52.102;11.584;2023-12-22T04:51:42;4.30;;;1.15;;
38208;SDS011;24016;52.102;11.584;2023-12-22T04:54:07;3.22;;;1.20;;
38208;SDS011;24016;52.102;11.584;2023-12-22T04:56:33;8.05;;;1.30;;
38208;SDS011;24016;52.102;11.584;2023-12-22T04:58:58;5.47;;;1.15;;
38208;SDS011;24016;52.102;11.584;2023-12-22T05:01:24;4.20;;;1.27;;
38208;SDS011;24016;52.102;11.584;2023-12-22T05:03:49;7.30;;;1.48;;
38208;SDS011;24016;52.102;11.584;2023-12-22T05:06:15;6.28;;;1.55;;
38208;SDS011;24016;52.102;11.584;2023-12-22T05:08:41;8.45;;;1.98;;
38208;SDS011;24016;52.102;11.584;2023-12-22T05:11:06;9.27;;;2.08;;
38208;SDS011;24016;52.102;11.584;2023-12-22T05:13:31;5.90;;;1.95;;
38208;SDS011;24016;52.102;11.584;2023-12-22T05:15:57;6.65;;;2.00;;
38208;SDS011;24016;52.102;11.584;2023-12-22T05:18:23;9.57;;;2.10;;
38208;SDS011;24016;52.102;11.584;2023-12-22T05:20:48;5.50;;;1.77;;
38208;SDS011;24016;52.102;11.584;2023-12-22T05:23:15;8.55;;;2.22;;
38208;SDS011;24016;52.102;11.584;2023-12-22T05:25:40;11.93;;;2.10;;
38208;SDS011;24016;52.102;11.584;2023-12-22T05:28:06;8.05;;;2.20;;
38208;SDS011;24016;52.102;11.584;2023-12-22T05:30:31;8.32;;;1.70;;
38208;SDS011;24016;52.102;11.584;2023-12-22T05:32:57;11.60;;;2.50;;
38208;SDS011;24016;52.102;11.584;2023-12-22T05:35:22;8.55;;;1.80;;
38208;SDS011;24016;52.102;11.584;2023-12-22T05:37:48;8.18;;;1.92;;
38208;SDS011;24016;52.102;11.584;2023-12-22T05:40:13;6.93;;;1.52;;
38208;SDS011;24016;52.102;11.584;2023-12-22T05:42:39;6.93;;;1.40;;
38208;SDS011;24016;52.102;11.584;2023-12-22T05:45:05;4.93;;;1.67;;
38208;SDS011;24016;52.102;11.584;2023-12-22T05:47:32;9.18;;;2.38;;
38208;SDS011;24016;52.102;11.584;2023-12-22T05:49:58;10.10;;;1.70;;
38208;SDS011;24016;52.102;11.584;2023-12-22T05:52:24;12.73;;;2.08;;
38208;SDS011;24016;52.102;11.584;2023-12-22T05:54:50;7.05;;;2.08;;
38208;SDS011;24016;52.102;11.584;2023-12-22T05:57:15;6.63;;;1.98;;
38208;SDS011;24016;52.102;11.584;2023-12-22T05:59:42;9.35;;;2.10;;
38208;SDS011;24016;52.102;11.584;2023-12-22T06:02:07;5.68;;;1.40;;
38208;SDS011;24016;52.102;11.584;2023-12-22T06:04:33;7.93;;;1.90;;
38208;SDS011;24016;52.102;11.584;2023-12-22T06:06:59;6.53;;;1.67;;
38208;SDS011;24016;52.102;11.584;2023-12-22T06:09:25;8.02;;;1.85;;
38208;SDS011;24016;52.102;11.584;2023-12-22T06:11:51;9.25;;;1.75;;
38208;SDS011;24016;52.102;11.584;2023-12-22T06:14:16;7.20;;;1.83;;
38208;SDS011;24016;52.102;11.584;2023-12-22T06:16:42;5.25;;;1.08;;
38208;SDS011;24016;52.102;11.584;2023-12-22T06:19:08;8.57;;;1.42;;
38208;SDS011;24016;52.102;11.584;2023-12-22T06:21:37;4.35;;;1.65;;
38208;SDS011;24016;52.102;11.584;2023-12-22T06:24:03;4.15;;;1.42;;
38208;SDS011;24016;52.102;11.584;2023-12-22T06:26:29;7.05;;;1.50;;
38208;SDS011;24016;52.102;11.584;2023-12-22T06:28:55;3.80;;;1.20;;
38208;SDS011;24016;52.102;11.584;2023-12-22T06:31:21;3.60;;;1.15;;
38208;SDS011;24016;52.102;11.584;2023-12-22T06:33:47;4.93;;;1.13;;
38208;SDS011;24016;52.102;11.584;2023-12-22T06:36:17;4.97;;;0.93;;
38208;SDS011;24016;52.102;11.584;2023-12-22T06:38:44;2.42;;;0.57;;
38208;SDS011;24016;52.102;11.584;2023-12-22T06:41:17;1.80;;;0.65;;
38208;SDS011;24016;52.102;11.584;2023-12-22T06:43:47;1.23;;;0.65;;
38208;SDS011;24016;52.102;11.584;2023-12-22T06:46:15;0.40;;;0.40;;
38208;SDS011;24016;52.102;11.584;2023-12-22T06:48:47;0.90;;;0.55;;
38208;SDS011;24016;52.102;11.584;2023-12-22T06:51:17;2.88;;;0.60;;
38208;SDS011;24016;52.102;11.584;2023-12-22T06:53:44;3.20;;;0.83;;
38208;SDS011;24016;52.102;11.584;2023-12-22T06:56:23;3.85;;;1.20;;
38208;SDS011;24016;52.102;11.584;2023-12-22T06:58:50;2.20;;;0.85;;
38208;SDS011;24016;52.102;11.584;2023-12-22T07:01:21;3.65;;;1.60;;
38208;SDS011;24016;52.102;11.584;2023-12-22T07:03:47;4.63;;;1.13;;
38208;SDS011;24016;52.102;11.584;2023-12-22T07:06:14;2.63;;;1.05;;
38208;SDS011;24016;52.102;11.584;2023-12-22T07:08:40;8.05;;;1.30;;
38208;SDS011;24016;52.102;11.584;2023-12-22T07:11:06;4.30;;;1.80;;
38208;SDS011;24016;52.102;11.584;2023-12-22T07:13:32;4.10;;;1.35;;
38208;SDS011;24016;52.102;11.584;2023-12-22T07:15:58;3.47;;;1.08;;
38208;SDS011;24016;52.102;11.584;2023-12-22T07:18:23;3.40;;;0.90;;
38208;SDS011;24016;52.102;11.584;2023-12-22T07:20:50;6.90;;;1.77;;
38208;SDS011;24016;52.102;11.584;2023-12-22T07:23:15;6.70;;;1.60;;
38208;SDS011;24016;52.102;11.584;2023-12-22T07:25:41;5.88;;;1.48;;
38208;SDS011;24016;52.102;11.584;2023-12-22T07:28:06;10.75;;;1.50;;
38208;SDS011;24016;52.102;11.584;2023-12-22T07:30:32;4.70;;;1.52;;
38208;SDS011;24016;52.102;11.584;2023-12-22T07:32:58;10.15;;;2.67;;
38208;SDS011;24016;52.102;11.584;2023-12-22T07:35:25;9.15;;;1.67;;
38208;SDS011;24016;52.102;11.584;2023-12-22T07:37:50;6.03;;;1.35;;
38208;SDS011;24016;52.102;11.584;2023-12-22T07:40:16;4.38;;;1.10;;
38208;SDS011;24016;52.102;11.584;2023-12-22T07:42:41;5.57;;;1.05;;
38208;SDS011;24016;52.102;11.584;2023-12-22T07:45:07;6.18;;;1.23;;
38208;SDS011;24016;52.102;11.584;2023-12-22T07:47:34;6.13;;;1.55;;
38208;SDS011;24016;52.102;11.584;2023-12-22T07:50:01;2.83;;;1.20;;
38208;SDS011;24016;52.102;11.584;2023-12-22T07:52:26;3.25;;;0.90;;
38208;SDS011;24016;52.102;11.584;2023-12-22T07:54:52;4.18;;;1.40;;
38208;SDS011;24016;52.102;11.584;2023-12-22T07:57:18;3.47;;;0.90;;
38208;SDS011;24016;52.102;11.584;2023-12-22T07:59:43;3.85;;;1.00;;
38208;SDS011;24016;52.102;11.584;2023-12-22T08:02:09;5.18;;;0.90;;
38208;SDS011;24016;52.102;11.584;2023-12-22T08:04:34;2.88;;;0.90;;
38208;SDS011;24016;52.102;11.584;2023-12-22T08:07:00;2.33;;;0.88;;
38208;SDS011;24016;52.102;11.584;2023-12-22T08:09:27;5.13;;;1.42;;
38208;SDS011;24016;52.102;11.584;2023-12-22T08:11:52;7.03;;;1.42;;
38208;SDS011;24016;52.102;11.584;2023-12-22T08:14:18;4.88;;;1.13;;
38208;SDS011;24016;52.102;11.584;2023-12-22T08:16:44;3.15;;;1.13;;
38208;SDS011;24016;52.102;11.584;2023-12-22T08:19:10;6.90;;;1.45;;
38208;SDS011;24016;52.102;11.584;2023-12-22T08:21:36;7.20;;;1.42;;
38208;SDS011;24016;52.102;11.584;2023-12-22T08:24:01;4.80;;;1.23;;
38208;SDS011;24016;52.102;11.584;2023-12-22T08:26:27;9.07;;;1.42;;
38208;SDS011;24016;52.102;11.584;2023-12-22T08:28:52;7.47;;;2.25;;
38208;SDS011;24016;52.102;11.584;2023-12-22T08:31:18;8.18;;;1.33;;
38208;SDS011;24016;52.102;11.584;2023-12-22T08:33:43;5.93;;;1.63;;
38208;SDS011;24016;52.102;11.584;2023-12-22T08:36:10;4.50;;;1.33;;
38208;SDS011;24016;52.102;11.584;2023-12-22T08:38:36;6.15;;;1.40;;
38208;SDS011;24016;52.102;11.584;2023-12-22T08:41:05;2.40;;;1.27;;
38208;SDS011;24016;52.102;11.584;2023-12-22T08:43:33;6.10;;;1.30;;
38208;SDS011;24016;52.102;11.584;2023-12-22T08:45:59;11.18;;;2.10;;
38208;SDS011;24016;52.102;11.584;2023-12-22T08:48:25;7.70;;;1.70;;
38208;SDS011;24016;52.102;11.584;2023-12-22T08:50:50;7.00;;;1.50;;
38208;SDS011;24016;52.102;11.584;2023-12-22T08:53:16;4.50;;;1.40;;
38208;SDS011;24016;52.102;11.584;2023-12-22T08:55:41;3.47;;;1.25;;
38208;SDS011;24016;52.102;11.584;2023-12-22T08:58:07;10.77;;;1.75;;
38208;SDS011;24016;52.102;11.584;2023-12-22T09:00:32;10.00;;;1.80;;
38208;SDS011;24016;52.102;11.584;2023-12-22T09:02:58;6.68;;;1.58;;
38208;SDS011;24016;52.102;11.584;2023-12-22T09:05:23;4.38;;;1.40;;
38208;SDS011;24016;52.102;11.584;2023-12-22T09:07:49;5.65;;;1.50;;
38208;SDS011;24016;52.102;11.584;2023-12-22T09:10:14;5.82;;;1.52;;
38208;SDS011;24016;52.102;11.584;2023-12-22T09:12:40;8.05;;;1.80;;
38208;SDS011;24016;52.102;11.584;2023-12-22T09:15:05;5.22;;;1.85;;
38208;SDS011;24016;52.102;11.584;2023-12-22T09:17:31;8.85;;;1.35;;
38208;SDS011;24016;52.102;11.584;2023-12-22T09:19:57;5.82;;;1.30;;
38208;SDS011;24016;52.102;11.584;2023-12-22T09:22:23;4.10;;;1.63;;
38208;SDS011;24016;52.102;11.584;2023-12-22T09:24:49;7.57;;;1.48;;
38208;SDS011;24016;52.102;11.584;2023-12-22T09:27:14;5.88;;;1.75;;
38208;SDS011;24016;52.102;11.584;2023-12-22T09:29:40;14.10;;;2.30;;
38208;SDS011;24016;52.102;11.584;2023-12-22T09:32:06;8.15;;;1.85;;
38208;SDS011;24016;52.102;11.584;2023-12-22T09:34:31;9.63;;;1.63;;
38208;SDS011;24016;52.102;11.584;2023-12-22T09:36:57;10.38;;;2.15;;
38208;SDS011;24016;52.102;11.584;2023-12-22T09:39:22;8.73;;;1.60;;
38208;SDS011;24016;52.102;11.584;2023-12-22T09:41:48;7.80;;;1.58;;
38208;SDS011;24016;52.102;11.584;2023-12-22T09:44:18;6.65;;;2.10;;
38208;SDS011;24016;52.102;11.584;2023-12-22T09:46:46;9.77;;;2.22;;
38208;SDS011;24016;52.102;11.584;2023-12-22T09:49:15;8.23;;;2.45;;
38208;SDS011;24016;52.102;11.584;2023-12-22T09:51:45;10.52;;;2.65;;
38208;SDS011;24016;52.102;11.584;2023-12-22T09:54:11;8.13;;;2.03;;
38208;SDS011;24016;52.102;11.584;2023-12-22T09:56:38;11.88;;;1.98;;
38208;SDS011;24016;52.102;11.584;2023-12-22T09:59:09;9.15;;;1.83;;
38208;SDS011;24016;52.102;11.584;2023-12-22T10:01:40;6.43;;;1.80;;
38208;SDS011;24016;52.102;11.584;2023-12-22T10:04:09;10.95;;;1.90;;
38208;SDS011;24016;52.102;11.584;2023-12-22T10:06:34;11.18;;;2.22;;
38208;SDS011;24016;52.102;11.584;2023-12-22T10:09:01;10.20;;;2.05;;
38208;SDS011;24016;52.102;11.584;2023-12-22T10:11:30;9.32;;;2.45;;
38208;SDS011;24016;52.102;11.584;2023-12-22T10:13:57;10.00;;;2.03;;
38208;SDS011;24016;52.102;11.584;2023-12-22T10:16:25;12.90;;;2.70;;
38208;SDS011;24016;52.102;11.584;2023-12-22T10:18:51;10.48;;;2.22;;
38208;SDS011;24016;52.102;11.584;2023-12-22T10:21:17;16.55;;;2.83;;
38208;SDS011;24016;52.102;11.584;2023-12-22T10:23:42;9.55;;;2.50;;
38208;SDS011;24016;52.102;11.584;2023-12-22T10:26:10;15.18;;;2.78;;
38208;SDS011;24016;52.102;11.584;2023-12-22T10:28:36;10.48;;;2.42;;
38208;SDS011;24016;52.102;11.584;2023-12-22T10:31:02;11.43;;;2.38;;
38208;SDS011;24016;52.102;11.584;2023-12-22T10:33:31;10.35;;;2.78;;
38208;SDS011;24016;52.102;11.584;2023-12-22T10:35:58;14.20;;;2.58;;
38208;SDS011;24016;52.102;11.584;2023-12-22T10:38:24;12.60;;;3.25;;
38208;SDS011;24016;52.102;11.584;2023-12-22T10:40:50;12.35;;;2.78;;
38208;SDS011;24016;52.102;11.584;2023-12-22T10:43:16;12.73;;;3.20;;
38208;SDS011;24016;52.102;11.584;2023-12-22T10:45:42;16.92;;;3.30;;
38208;SDS011;24016;52.102;11.584;2023-12-22T10:48:07;11.20;;;2.70;;
38208;SDS011;24016;52.102;11.584;2023-12-22T10:50:33;12.45;;;2.40;;
38208;SDS011;24016;52.102;11.584;2023-12-22T10:52:58;18.13;;;4.07;;
38208;SDS011;24016;52.102;11.584;2023-12-22T10:55:26;9.35;;;2.33;;
38208;SDS011;24016;52.102;11.584;2023-12-22T10:57:52;7.45;;;1.90;;
38208;SDS011;24016;52.102;11.584;2023-12-22T11:00:19;7.32;;;1.25;;
38208;SDS011;24016;52.102;11.584;2023-12-22T11:02:49;2.72;;;1.08;;
38208;SDS011;24016;52.102;11.584;2023-12-22T11:05:19;3.40;;;0.90;;
38208;SDS011;24016;52.102;11.584;2023-12-22T11:07:48;3.75;;;1.00;;
38208;SDS011;24016;52.102;11.584;2023-12-22T11:10:14;3.25;;;1.08;;
38208;SDS011;24016;52.102;11.584;2023-12-22T11:12:44;3.35;;;1.00;;
38208;SDS011;24016;52.102;11.584;2023-12-22T11:15:12;3.00;;;1.10;;
38208;SDS011;24016;52.102;11.584;2023-12-22T11:17:39;3.42;;;0.95;;
38208;SDS011;24016;52.102;11.584;2023-12-22T11:20:08;4.28;;;1.00;;
38208;SDS011;24016;52.102;11.584;2023-12-22T11:22:35;4.45;;;1.02;;
38208;SDS011;24016;52.102;11.584;2023-12-22T11:25:02;2.03;;;0.73;;
38208;SDS011;24016;52.102;11.584;2023-12-22T11:27:28;3.35;;;0.80;;
38208;SDS011;24016;52.102;11.584;2023-12-22T11:29:54;3.35;;;1.00;;
38208;SDS011;24016;52.102;11.584;2023-12-22T11:32:20;2.65;;;1.17;;
38208;SDS011;24016;52.102;11.584;2023-12-22T11:34:46;2.45;;;0.82;;
38208;SDS011;24016;52.102;11.584;2023-12-22T11:37:13;4.28;;;1.60;;
38208;SDS011;24016;52.102;11.584;2023-12-22T11:39:41;3.60;;;0.90;;
38208;SDS011;24016;52.102;11.584;2023-12-22T11:42:10;2.42;;;0.80;;
38208;SDS011;24016;52.102;11.584;2023-12-22T11:44:39;2.15;;;0.85;;
38208;SDS011;24016;52.102;11.584;2023-12-22T11:47:06;2.08;;;0.70;;
38208;SDS011;24016;52.102;11.584;2023-12-22T11:49:33;3.80;;;1.35;;
38208;SDS011;24016;52.102;11.584;2023-12-22T11:52:15;3.53;;;0.88;;
38208;SDS011;24016;52.102;11.584;2023-12-22T11:54:45;4.72;;;1.08;;
38208;SDS011;24016;52.102;11.584;2023-12-22T11:59:52;2.65;;;1.10;;
38208;SDS011;24016;52.102;11.584;2023-12-22T12:02:18;2.28;;;0.93;;
38208;SDS011;24016;52.102;11.584;2023-12-22T12:04:52;2.28;;;0.68;;
38208;SDS011;24016;52.102;11.584;2023-12-22T12:10:09;3.05;;;1.00;;
38208;SDS011;24016;52.102;11.584;2023-12-22T12:15:51;6.47;;;1.13;;
38208;SDS011;24016;52.102;11.584;2023-12-22T12:18:21;5.30;;;1.48;;
38208;SDS011;24016;52.102;11.584;2023-12-22T12:20:48;4.70;;;1.37;;
38208;SDS011;24016;52.102;11.584;2023-12-22T12:23:15;2.50;;;0.90;;
38208;SDS011;24016;52.102;11.584;2023-12-22T12:25:41;8.52;;;1.50;;
38208;SDS011;24016;52.102;11.584;2023-12-22T12:28:07;5.90;;;1.35;;
38208;SDS011;24016;52.102;11.584;2023-12-22T12:30:34;4.03;;;1.30;;
38208;SDS011;24016;52.102;11.584;2023-12-22T12:33:13;4.72;;;1.08;;
38208;SDS011;24016;52.102;11.584;2023-12-22T12:35:41;6.25;;;1.52;;
38208;SDS011;24016;52.102;11.584;2023-12-22T12:38:10;4.32;;;1.45;;
38208;SDS011;24016;52.102;11.584;2023-12-22T12:40:37;4.40;;;1.48;;
38208;SDS011;24016;52.102;11.584;2023-12-22T12:43:05;7.38;;;1.67;;
38208;SDS011;24016;52.102;11.584;2023-12-22T12:45:30;6.82;;;1.30;;
38208;SDS011;24016;52.102;11.584;2023-12-22T12:48:02;5.57;;;1.00;;
38208;SDS011;24016;52.102;11.584;2023-12-22T12:50:28;2.65;;;0.95;;
38208;SDS011;24016;52.102;11.584;2023-12-22T12:52:55;3.53;;;1.00;;
38208;SDS011;24016;52.102;11.584;2023-12-22T12:55:21;5.72;;;1.10;;
38208;SDS011;24016;52.102;11.584;2023-12-22T12:57:48;6.85;;;1.10;;
38208;SDS011;24016;52.102;11.584;2023-12-22T13:00:27;2.40;;;0.80;;
38208;SDS011;24016;52.102;11.584;2023-12-22T13:02:54;1.60;;;0.65;;
38208;SDS011;24016;52.102;11.584;2023-12-22T13:05:23;3.67;;;0.80;;
38208;SDS011;24016;52.102;11.584;2023-12-22T13:07:49;4.13;;;0.98;;
38208;SDS011;24016;52.102;11.584;2023-12-22T13:10:23;5.05;;;1.23;;
38208;SDS011;24016;52.102;11.584;2023-12-22T13:12:52;1.13;;;0.82;;
38208;SDS011;24016;52.102;11.584;2023-12-22T13:15:19;4.13;;;1.00;;
38208;SDS011;24016;52.102;11.584;2023-12-22T13:17:46;3.95;;;1.23;;
38208;SDS011;24016;52.102;11.584;2023-12-22T13:20:15;4.38;;;1.00;;
38208;SDS011;24016;52.102;11.584;2023-12-22T13:22:41;1.40;;;0.80;;
38208;SDS011;24016;52.102;11.584;2023-12-22T13:25:08;5.60;;;1.40;;
38208;SDS011;24016;52.102;11.584;2023-12-22T13:27:44;4.72;;;1.17;;
38208;SDS011;24016;52.102;11.584;2023-12-22T13:30:14;2.45;;;1.10;;
38208;SDS011;24016;52.102;11.584;2023-12-22T13:32:56;7.15;;;1.10;;
38208;SDS011;24016;52.102;11.584;2023-12-22T13:35:22;5.18;;;1.00;;
38208;SDS011;24016;52.102;11.584;2023-12-22T13:37:48;4.22;;;0.98;;
38208;SDS011;24016;52.102;11.584;2023-12-22T13:40:14;3.38;;;1.17;;
38208;SDS011;24016;52.102;11.584;2023-12-22T13:42:39;2.67;;;0.98;;
38208;SDS011;24016;52.102;11.584;2023-12-22T13:45:09;3.95;;;1.10;;
38208;SDS011;24016;52.102;11.584;2023-12-22T13:47:39;4.40;;;1.10;;
38208;SDS011;24016;52.102;11.584;2023-12-22T13:50:16;4.18;;;1.20;;
38208;SDS011;24016;52.102;11.584;2023-12-22T13:52:43;4.72;;;0.98;;
38208;SDS011;24016;52.102;11.584;2023-12-22T13:55:13;3.13;;;0.90;;
38208;SDS011;24016;52.102;11.584;2023-12-22T13:57:40;3.73;;;0.93;;
38208;SDS011;24016;52.102;11.584;2023-12-22T14:02:48;6.10;;;1.75;;
38208;SDS011;24016;52.102;11.584;2023-12-22T14:05:14;5.72;;;1.50;;
38208;SDS011;24016;52.102;11.584;2023-12-22T14:07:41;6.18;;;1.55;;
38208;SDS011;24016;52.102;11.584;2023-12-22T14:10:08;8.50;;;1.55;;
38208;SDS011;24016;52.102;11.584;2023-12-22T14:12:35;6.82;;;1.10;;
38208;SDS011;24016;52.102;11.584;2023-12-22T14:15:03;2.70;;;1.08;;
38208;SDS011;24016;52.102;11.584;2023-12-22T14:17:32;2.97;;;1.33;;
38208;SDS011;24016;52.102;11.584;2023-12-22T14:19:58;2.63;;;1.23;;
38208;SDS011;24016;52.102;11.584;2023-12-22T14:22:25;6.20;;;1.30;;
38208;SDS011;24016;52.102;11.584;2023-12-22T14:24:51;5.40;;;1.10;;
38208;SDS011;24016;52.102;11.584;2023-12-22T14:27:17;7.20;;;1.48;;
38208;SDS011;24016;52.102;11.584;2023-12-22T14:29:43;3.17;;;0.90;;
38208;SDS011;24016;52.102;11.584;2023-12-22T14:32:10;4.82;;;1.17;;
38208;SDS011;24016;52.102;11.584;2023-12-22T14:34:40;6.70;;;1.48;;
38208;SDS011;24016;52.102;11.584;2023-12-22T14:37:05;4.63;;;0.93;;
38208;SDS011;24016;52.102;11.584;2023-12-22T14:39:31;6.68;;;1.30;;
38208;SDS011;24016;52.102;11.584;2023-12-22T14:41:58;4.53;;;1.30;;